Time;durP1;ratioP1;P1;durP2;ratioP2;P2;SDS_P1;SDS_P2;PMS_P1;PMS_P2;Temp;Humidity;BMP_temperature;BMP_pressure;BME280_temperature;BME280_humidity;BME280_pressure;Samples;Min_cycle;Max_cycle;Signal;HPM_P1;HPM_P2
2021/12/07 00:00:41;;;;;;;6.15;4.90;;;;;;;14.18;49.77;99956.53;21054200;28;20060;-71
2021/12/07 00:10:43;;;;;;;6.30;4.97;;;;;;;14.81;50.09;100076.00;21069010;28;20047;-71
2021/12/07 00:20:45;;;;;;;5.18;4.32;;;;;;;14.75;50.34;100050.59;21087808;28;20428;-71
2021/12/07 00:30:48;;;;;;;6.05;4.55;;;;;;;14.20;50.32;99959.91;21085545;28;20055;-71
2021/12/07 00:40:52;;;;;;;4.82;4.07;;;;;;;14.75;50.02;100055.13;21050391;28;20055;-71
2021/12/07 00:50:56;;;;;;;5.55;3.85;;;;;;;14.73;50.48;100051.72;21065978;28;20109;-71
2021/12/07 01:01:05;;;;;;;4.30;3.33;;;;;;;14.79;50.16;100061.91;21064844;28;20048;-71
2021/12/07 01:32:07;;;;;;;3.50;3.17;;;;;;;14.65;50.13;100066.63;21049366;28;20497;-71
2021/12/07 02:02:42;;;;;;;3.60;2.92;;;;;;;14.68;50.33;100081.56;21044636;28;20056;-71
2021/12/07 02:12:46;;;;;;;3.80;3.28;;;;;;;14.77;50.07;100117.47;21077241;28;20054;-71
2021/12/07 02:22:51;;;;;;;3.35;2.90;;;;;;;14.19;50.20;100020.63;21076376;28;20131;-71
2021/12/07 02:32:55;;;;;;;2.90;2.47;;;;;;;14.05;49.95;99999.56;21042331;28;20046;-71
2021/12/07 02:42:57;;;;;;;2.72;2.30;;;;;;;14.66;50.28;100099.59;21057444;28;20554;-71
2021/12/07 02:53:00;;;;;;;3.15;2.25;;;;;;;14.77;50.34;100126.31;21058164;28;20095;-71
2021/12/07 03:03:08;;;;;;;3.38;2.47;;;;;;;14.78;49.88;100138.75;21055424;28;20060;-71
2021/12/07 03:33:55;;;;;;;2.20;2.00;;;;;;;14.52;50.24;100118.72;21054109;28;20123;-71
2021/12/07 03:44:00;;;;;;;2.60;2.33;;;;;;;14.04;49.78;100044.19;21055209;28;20074;-71
2021/12/07 03:54:04;;;;;;;3.33;2.53;;;;;;;14.69;49.65;100186.91;21089008;28;20075;-71
2021/12/07 04:04:06;;;;;;;1.77;1.67;;;;;;;13.47;50.14;99984.81;21087889;28;20059;-71
2021/12/07 04:14:08;;;;;;;1.95;1.75;;;;;;;14.59;50.28;100176.13;21086767;28;20396;-71
2021/12/07 04:24:10;;;;;;;2.10;1.90;;;;;;;14.32;50.33;100142.69;21067581;28;20086;-71
2021/12/07 04:34:12;;;;;;;2.38;2.17;;;;;;;14.17;50.08;100118.13;21084890;28;20048;-71
2021/12/07 04:44:14;;;;;;;1.90;1.80;;;;;;;14.83;50.29;100201.84;21084722;28;20052;-71
2021/12/07 05:04:27;;;;;;;1.60;1.50;;;;;;;15.09;49.87;100212.97;21143133;28;20051;-71
2021/12/07 05:14:33;;;;;;;2.20;1.60;;;;;;;14.58;49.69;100140.47;21146889;28;20051;-71
2021/12/07 05:24:48;;;;;;;1.50;1.40;;;;;;;15.16;49.92;100257.00;21135657;28;20052;-71
2021/12/07 05:37:43;;;;;;;1.67;1.57;;;;;;;15.06;49.74;100223.94;21095315;28;20501;-71
2021/12/07 05:45:15;;;;;;;1.52;1.27;;;;;;;15.32;49.76;100266.38;21095172;28;20659;-71
2021/12/07 05:55:18;;;;;;;1.63;1.53;;;;;;;15.55;49.50;100274.25;21128086;28;20048;-71
2021/12/07 06:05:20;;;;;;;2.60;1.70;;;;;;;15.14;49.36;100181.22;21162543;28;20051;-71
2021/12/07 06:15:24;;;;;;;1.50;1.38;;;;;;;15.39;49.07;100208.53;21161789;28;20131;-71
2021/12/07 06:25:25;;;;;;;1.42;1.30;;;;;;;15.52;48.95;100214.50;21160687;28;20112;-71
2021/12/07 06:35:27;;;;;;;2.17;1.92;;;;;;;16.07;48.96;100312.53;21160060;28;20179;-71
2021/12/07 06:45:30;;;;;;;2.38;1.70;;;;;;;16.09;49.18;100318.63;21159317;28;20469;-72
2021/12/07 06:55:32;;;;;;;1.73;1.02;;;;;;;16.03;49.24;100324.56;21158847;28;20040;-73
2021/12/07 07:05:34;;;;;;;2.05;1.15;;;;;;;15.46;49.15;100193.56;21139639;28;20109;-71
2021/12/07 07:15:36;;;;;;;2.15;1.60;;;;;;;16.26;49.22;100343.09;21157051;28;20098;-71
2021/12/07 07:25:38;;;;;;;1.35;1.15;;;;;;;16.27;49.79;100385.06;21156413;28;20035;-71
2021/12/07 07:35:40;;;;;;;3.33;1.15;;;;;;;16.18;49.64;100375.16;21137913;28;20385;-71
2021/12/07 07:45:43;;;;;;;4.45;1.20;;;;;;;15.68;49.94;100317.78;21155887;28;20406;-71
2021/12/07 07:55:52;;;;;;;3.15;1.33;;;;;;;16.25;49.94;100419.28;21155572;28;20055;-71
2021/12/07 08:05:54;;;;;;;6.82;1.85;;;;;;;15.97;49.90;100368.06;21155383;28;20055;-71
2021/12/07 08:15:58;;;;;;;2.70;1.40;;;;;;;16.12;49.44;100367.66;21136386;28;20085;-71
2021/12/07 08:26:00;;;;;;;4.00;1.70;;;;;;;15.72;49.60;100300.41;21162551;28;20043;-71
2021/12/07 08:36:02;;;;;;;2.45;1.35;;;;;;;16.20;49.79;100378.56;21151165;28;20109;-71
2021/12/07 08:46:05;;;;;;;3.83;1.23;;;;;;;15.59;49.74;100286.41;21150601;28;20047;-75
2021/12/07 09:06:28;;;;;;;13.18;2.35;;;;;;;16.03;50.53;100340.66;21167057;28;20044;-72
2021/12/07 09:16:30;;;;;;;7.32;1.90;;;;;;;16.30;50.74;100355.25;21148360;28;20052;-72
2021/12/07 09:26:32;;;;;;;7.03;2.08;;;;;;;15.72;50.89;100295.03;21165599;28;20052;-72
2021/12/07 09:36:35;;;;;;;10.57;2.42;;;;;;;16.39;50.94;100404.63;21164375;28;20534;-72
2021/12/07 09:46:38;;;;;;;10.20;1.90;;;;;;;16.49;50.96;100431.50;21146105;28;20571;-72
2021/12/07 09:56:40;;;;;;;9.48;1.80;;;;;;;16.01;50.67;100347.13;21145249;28;20039;-72
2021/12/07 10:06:42;;;;;;;3.92;1.80;;;;;;;16.45;50.95;100435.47;21162607;28;20211;-72
2021/12/07 10:16:45;;;;;;;8.00;1.83;;;;;;;16.47;50.68;100430.81;21161542;28;20141;-72
2021/12/07 10:26:48;;;;;;;6.80;1.52;;;;;;;16.53;50.79;100451.75;21160904;28;20543;-72
2021/12/07 10:37:06;;;;;;;7.43;1.88;;;;;;;15.99;50.52;100344.59;21159924;28;20050;-72
2021/12/07 10:47:10;;;;;;;5.95;1.10;;;;;;;16.44;50.81;100423.84;21159049;28;20060;-72
2021/12/07 10:57:19;;;;;;;4.38;1.35;;;;;;;15.95;50.67;100327.06;21158537;28;20051;-72
2021/12/07 11:07:26;;;;;;;3.55;1.40;;;;;;;16.37;50.86;100377.03;21157886;28;20138;-76
2021/12/07 11:17:32;;;;;;;7.05;1.25;;;;;;;15.94;51.17;100304.75;21157712;28;20073;-77
2021/12/07 11:37:56;;;;;;;7.10;1.35;;;;;;;16.35;52.56;100344.09;21156286;28;20546;-76
2021/12/07 11:48:00;;;;;;;7.45;1.60;;;;;;;16.70;52.31;100399.16;21120741;28;20048;-79
2021/12/07 11:58:04;;;;;;;4.63;1.40;;;;;;;16.53;52.12;100368.44;21158874;28;20066;-79
2021/12/07 12:08:08;;;;;;;4.97;1.65;;;;;;;16.62;51.52;100394.47;21154086;28;20047;-80
2021/12/07 12:18:35;;;;;;;5.75;1.63;;;;;;;16.12;51.26;100343.50;21171326;28;20081;-81
2021/12/07 12:28:42;;;;;;;9.23;1.90;;;;;;;16.59;51.20;100373.25;21106251;28;20044;-81
2021/12/07 12:38:49;;;;;;;8.52;2.17;;;;;;;16.65;49.99;100270.56;21169721;28;20047;-80
2021/12/07 12:48:53;;;;;;;6.72;1.75;;;;;;;17.85;48.64;100355.31;21150895;28;20040;-80
2021/12/07 12:59:02;;;;;;;9.15;2.28;;;;;;;17.68;48.36;100330.91;21167691;28;20059;-80
2021/12/07 13:09:18;;;;;;;9.40;2.20;;;;;;;17.16;49.45;100305.28;21166180;28;20130;-80
2021/12/07 13:19:20;;;;;;;5.73;1.90;;;;;;;16.95;50.13;100310.81;21166589;28;20055;-86
2021/12/07 13:29:26;;;;;;;7.00;2.17;;;;;;;16.76;50.62;100295.56;21131401;28;20059;-79
2021/12/07 13:39:32;;;;;;;7.57;2.20;;;;;;;16.61;51.05;100301.41;21146938;28;20048;-81
2021/12/07 13:49:35;;;;;;;13.20;2.63;;;;;;;15.99;51.21;100213.06;21163937;28;20044;-78
2021/12/07 13:59:36;;;;;;;6.63;1.75;;;;;;;16.25;51.74;100258.13;21145051;28;20463;-77
2021/12/07 14:09:38;;;;;;;8.25;2.58;;;;;;;15.68;51.60;100143.34;21162236;28;20040;-78
2021/12/07 14:19:40;;;;;;;7.85;1.83;;;;;;;16.35;51.97;100237.50;21161060;28;20031;-76
2021/12/07 14:29:42;;;;;;;4.05;2.00;;;;;;;16.33;52.28;100209.09;21160693;28;20050;-76
2021/12/07 14:39:44;;;;;;;8.18;1.88;;;;;;;16.15;52.45;100165.97;21159939;28;20044;-77
2021/12/07 14:49:49;;;;;;;10.85;2.00;;;;;;;15.93;52.20;100108.94;21158066;28;20043;-77
2021/12/07 14:59:58;;;;;;;6.15;1.95;;;;;;;16.49;52.48;100200.44;21156851;28;20502;-77
2021/12/07 15:10:05;;;;;;;5.68;1.70;;;;;;;16.52;52.46;100197.47;21158099;28;20516;-77
2021/12/07 15:20:11;;;;;;;6.40;1.85;;;;;;;15.94;52.31;100057.75;21157468;28;20036;-77
2021/12/07 15:30:13;;;;;;;4.78;1.92;;;;;;;15.83;52.06;100027.50;21156961;28;20043;-77
2021/12/07 15:40:15;;;;;;;7.13;1.77;;;;;;;16.03;52.27;100029.22;21155830;28;20043;-77
2021/12/07 15:50:26;;;;;;;4.32;1.40;;;;;;;16.37;52.13;100078.84;21156049;28;20056;-77
2021/12/07 16:00:30;;;;;;;6.57;1.90;;;;;;;15.99;51.92;100006.34;21155443;28;20051;-76
2021/12/07 16:10:35;;;;;;;3.83;1.67;;;;;;;16.57;51.78;100114.56;21157033;28;20039;-77
2021/12/07 16:20:38;;;;;;;5.30;1.70;;;;;;;16.04;51.78;99982.56;21154966;28;20043;-77
2021/12/07 16:30:40;;;;;;;8.60;2.50;;;;;;;16.00;51.27;99959.72;21154518;28;20106;-76
2021/12/07 16:40:42;;;;;;;4.47;1.70;;;;;;;15.95;51.02;99949.41;21154163;28;20040;-74
2021/12/07 16:50:44;;;;;;;4.45;1.60;;;;;;;16.14;50.86;99939.59;21167367;28;20083;-74
2021/12/07 17:00:47;;;;;;;3.38;1.80;;;;;;;16.72;50.53;100011.94;21167941;28;20060;-74
2021/12/07 17:10:50;;;;;;;3.92;1.63;;;;;;;16.56;50.44;99991.97;21167159;28;20056;-74
2021/12/07 17:20:53;;;;;;;3.60;1.95;;;;;;;16.54;50.20;99956.34;21166260;28;20055;-74
2021/12/07 17:30:55;;;;;;;6.07;2.08;;;;;;;15.88;50.25;99802.50;21165779;28;20391;-74
2021/12/07 17:40:57;;;;;;;4.00;2.13;;;;;;;16.65;49.95;99917.66;21164911;28;20577;-74
2021/12/07 17:50:58;;;;;;;4.18;2.30;;;;;;;16.08;49.61;99809.47;21163859;28;20044;-74
2021/12/07 18:01:00;;;;;;;4.90;1.90;;;;;;;16.80;49.45;99881.19;21161869;28;20454;-74
2021/12/07 18:11:02;;;;;;;6.03;2.42;;;;;;;16.73;49.30;99829.06;21163626;28;20473;-74
2021/12/07 18:21:04;;;;;;;5.30;2.30;;;;;;;16.10;48.94;99699.22;21143411;28;20109;-75
2021/12/07 18:31:06;;;;;;;7.20;2.50;;;;;;;16.70;48.95;99782.81;21160567;28;20044;-74
2021/12/07 18:41:14;;;;;;;6.75;2.90;;;;;;;16.56;48.68;99747.44;21160343;28;20043;-74
2021/12/07 18:51:16;;;;;;;6.75;2.92;;;;;;;15.92;48.65;99634.81;21159062;28;20546;-74
2021/12/07 19:01:18;;;;;;;6.88;3.03;;;;;;;16.23;48.41;99686.25;21159239;28;20047;-74
2021/12/07 19:11:22;;;;;;;6.80;2.42;;;;;;;16.11;47.99;99675.91;21157600;28;20075;-74
2021/12/07 19:21:23;;;;;;;5.00;2.22;;;;;;;15.36;48.07;99559.78;21157104;28;20043;-74
2021/12/07 19:31:25;;;;;;;4.80;2.13;;;;;;;15.73;48.17;99615.16;21156416;28;20052;-75
2021/12/07 19:41:27;;;;;;;5.28;2.58;;;;;;;15.66;47.71;99588.06;21156326;28;20039;-75
2021/12/07 19:51:31;;;;;;;6.07;2.35;;;;;;;14.92;47.87;99480.94;21155868;28;20044;-75
2021/12/07 20:01:33;;;;;;;7.07;2.20;;;;;;;15.25;47.84;99565.38;21155442;28;20074;-74
2021/12/07 20:11:36;;;;;;;4.38;2.10;;;;;;;15.25;47.62;99536.75;21120726;28;20408;-75
2021/12/07 20:21:39;;;;;;;3.92;1.77;;;;;;;14.57;47.66;99374.59;21162733;28;20039;-74
2021/12/07 20:31:42;;;;;;;5.20;1.83;;;;;;;15.04;47.28;99448.59;21170428;28;20492;-74
2021/12/07 20:41:44;;;;;;;4.25;1.55;;;;;;;14.54;46.86;99340.91;21169873;28;20480;-74
2021/12/07 20:51:46;;;;;;;4.43;1.92;;;;;;;14.22;46.90;99302.13;21169087;28;20066;-74
2021/12/07 21:01:48;;;;;;;3.65;1.80;;;;;;;14.63;46.03;99366.78;21167984;28;20060;-74
2021/12/07 21:11:50;;;;;;;3.70;1.83;;;;;;;14.06;46.76;99258.09;21167228;28;20401;-75
2021/12/07 21:21:52;;;;;;;2.95;1.38;;;;;;;14.21;46.28;99271.81;21166446;28;20529;-74
2021/12/07 21:31:55;;;;;;;4.05;1.95;;;;;;;14.13;46.14;99212.00;21164540;28;20083;-74
2021/12/07 21:41:58;;;;;;;5.13;1.58;;;;;;;14.07;46.20;99208.94;21164867;28;20492;-75
2021/12/07 21:52:00;;;;;;;4.05;1.50;;;;;;;14.02;46.44;99191.69;21129478;28;20042;-75
2021/12/07 22:02:03;;;;;;;3.20;1.35;;;;;;;14.68;46.46;99303.88;21163959;28;20043;-75
2021/12/07 22:12:06;;;;;;;2.83;1.27;;;;;;;14.57;46.39;99273.63;21162351;28;20058;-75
2021/12/07 22:22:08;;;;;;;4.70;1.60;;;;;;;14.74;46.05;99281.84;21162046;28;20464;-75
2021/12/07 22:32:10;;;;;;;4.25;1.35;;;;;;;14.46;46.04;99204.25;21125817;28;20043;-74
2021/12/07 22:42:12;;;;;;;2.17;1.27;;;;;;;14.72;46.05;99208.84;21159856;28;20116;-74
2021/12/07 22:52:15;;;;;;;3.05;1.45;;;;;;;14.01;46.06;99062.41;21140762;28;20089;-75
2021/12/07 23:02:17;;;;;;;3.28;1.20;;;;;;;14.01;45.82;99032.97;21140976;28;20056;-75
2021/12/07 23:12:19;;;;;;;3.05;1.35;;;;;;;14.70;45.61;99131.31;21139701;28;20051;-75
2021/12/07 23:22:21;;;;;;;2.38;1.25;;;;;;;14.56;45.86;99113.97;21157326;28;20055;-75
2021/12/07 23:32:23;;;;;;;2.72;1.17;;;;;;;14.76;45.70;99098.53;21138816;28;20396;-75
2021/12/07 23:42:25;;;;;;;3.53;1.30;;;;;;;14.09;45.99;98946.56;21156294;28;20048;-75
2021/12/07 23:52:27;;;;;;;2.20;1.08;;;;;;;14.72;45.70;99032.06;21139062;28;20046;-75
